Hiawatha, Kansas
Current Conditions -  °F | °C
As of 2:53 PM on Tuesday 25 Nov 2014 (Local Time) from KFNB Reporting Station
Clear Clear  
Wind Chill: 40°   Ceiling: Unl
Heat Index: 45°   Visibility: 10mi
Dew Point: 23°   Wind: 10mph
Humidity: 42%   Direction: 200°SSW
Pressure: 30.04"   Gusts: NA
Location:  39.85°N, 95.54°W
Report Text: KFNB 252053Z AUTO 20009KT 10SM CLR 07/M05 A3004 RMK AO2 SLP180 T00721050 56030
Loading
Personal Weather Stations






























Interactive Weather Map New forecast layout! Learn more

10-Day Weather Forecast

Advertisements
Track Severe Weather on mobile